Time;durP1;ratioP1;P1;durP2;ratioP2;P2;SDS_P1;SDS_P2;PMS_P1;PMS_P2;Temp;Humidity;BMP_temperature;BMP_pressure;BME280_temperature;BME280_humidity;BME280_pressure;Samples;Min_cycle;Max_cycle;Signal;HPM_P1;HPM_P2
2022/11/16 00:00:28;;;;;;;10.87;9.17;;;;;;;11.74;100.00;101276.81;2071358;28;20312;-67
2022/11/16 00:01:30;;;;;;;11.20;9.43;;;;;;;11.76;100.00;101256.97;2071193;28;20184;-67
2022/11/16 00:02:31;;;;;;;11.23;10.00;;;;;;;11.76;100.00;101279.97;2069305;28;20672;-67
2022/11/16 00:03:32;;;;;;;12.13;10.07;;;;;;;11.74;100.00;101262.16;2070845;28;20432;-67
2022/11/16 00:04:33;;;;;;;10.07;9.00;;;;;;;11.69;100.00;101268.97;2070958;28;20196;-67
2022/11/16 00:05:33;;;;;;;11.93;9.70;;;;;;;11.69;100.00;101262.66;2070148;28;20448;-67
2022/11/16 00:06:33;;;;;;;11.50;9.23;;;;;;;11.68;100.00;101267.41;2071353;28;20188;-67
2022/11/16 00:07:34;;;;;;;11.00;9.67;;;;;;;11.66;100.00;101264.28;2070938;28;20192;-67
2022/11/16 00:08:37;;;;;;;11.87;9.53;;;;;;;11.66;100.00;101267.06;2070924;28;20270;-67
2022/11/16 00:09:38;;;;;;;10.60;9.20;;;;;;;11.64;100.00;101257.59;2071298;28;20177;-67
2022/11/16 00:10:38;;;;;;;13.30;9.97;;;;;;;11.50;100.00;101244.72;2071444;28;20445;-67
2022/11/16 00:11:39;;;;;;;10.77;9.50;;;;;;;11.46;100.00;101237.66;2070931;28;20224;-67
2022/11/16 00:12:40;;;;;;;11.23;9.57;;;;;;;11.63;100.00;101256.03;2071137;28;20206;-67
2022/11/16 00:13:41;;;;;;;12.50;9.67;;;;;;;11.57;100.00;101239.03;2070712;28;20186;-67
2022/11/16 00:14:42;;;;;;;11.00;9.80;;;;;;;11.64;100.00;101246.50;2071555;28;20212;-67
2022/11/16 00:15:42;;;;;;;10.97;9.00;;;;;;;11.64;100.00;101252.81;2077867;28;20421;-67
2022/11/16 00:16:43;;;;;;;12.47;10.17;;;;;;;11.62;100.00;101252.47;2079537;28;20627;-67
2022/11/16 00:17:43;;;;;;;11.43;9.70;;;;;;;11.57;100.00;101263.22;2069974;28;20209;-67
2022/11/16 00:18:44;;;;;;;11.43;9.93;;;;;;;11.59;100.00;101258.06;2071002;28;20186;-67
2022/11/16 00:19:46;;;;;;;11.37;9.53;;;;;;;11.61;100.00;101255.66;2070927;28;20222;-67
2022/11/16 00:20:46;;;;;;;11.63;9.83;;;;;;;11.62;100.00;101252.47;2071524;28;20180;-67
2022/11/16 00:21:47;;;;;;;13.17;10.37;;;;;;;11.64;100.00;101254.81;2070556;28;21147;-67
2022/11/16 00:22:47;;;;;;;13.80;9.90;;;;;;;11.61;100.00;101252.88;2071053;28;20182;-67
2022/11/16 00:23:47;;;;;;;12.60;10.00;;;;;;;11.59;100.00;101252.53;2070530;28;20647;-67
2022/11/16 00:24:48;;;;;;;13.63;10.27;;;;;;;11.61;100.00;101250.91;2071425;28;21024;-67
2022/11/16 00:25:49;;;;;;;10.23;9.13;;;;;;;11.57;100.00;101249.34;2070939;28;20195;-67
2022/11/16 00:26:52;;;;;;;12.20;10.00;;;;;;;11.57;100.00;101247.38;2071138;28;20611;-67
2022/11/16 00:27:52;;;;;;;11.17;9.63;;;;;;;11.48;100.00;101224.16;2070097;28;21108;-67
2022/11/16 00:28:54;;;;;;;13.07;10.03;;;;;;;11.56;100.00;101243.03;2070211;28;20437;-67
2022/11/16 00:29:54;;;;;;;12.73;9.77;;;;;;;11.54;100.00;101242.66;2071008;28;20190;-68
2022/11/16 00:31:04;;;;;;;10.83;9.73;;;;;;;11.23;100.00;101190.50;2071177;28;20451;-67
2022/11/16 00:32:05;;;;;;;11.50;9.77;;;;;;;11.56;100.00;101237.47;2070625;28;20194;-67
2022/11/16 00:33:07;;;;;;;11.03;9.63;;;;;;;11.57;100.00;101241.00;2071484;28;20926;-67
2022/11/16 00:34:07;;;;;;;12.40;9.97;;;;;;;11.55;100.00;101230.34;2070851;28;20190;-67
2022/11/16 00:35:08;;;;;;;10.87;9.70;;;;;;;11.56;100.00;101226.38;2070869;28;20432;-67
2022/11/16 00:36:10;;;;;;;11.10;9.93;;;;;;;11.55;100.00;101218.47;2070896;28;20185;-67
2022/11/16 00:37:11;;;;;;;12.70;10.97;;;;;;;11.48;100.00;101224.91;2071163;28;20189;-67
2022/11/16 00:38:11;;;;;;;11.53;9.77;;;;;;;11.51;100.00;101226.06;2070627;28;20478;-67
2022/11/16 00:39:13;;;;;;;11.20;9.73;;;;;;;11.49;100.00;101229.28;2071298;28;20196;-67
2022/11/16 00:40:14;;;;;;;11.70;9.67;;;;;;;11.53;100.00;101229.22;2070613;28;20195;-67
2022/11/16 00:41:14;;;;;;;11.33;9.60;;;;;;;11.58;100.00;101225.94;2070964;28;20941;-67
2022/11/16 00:42:15;;;;;;;11.37;10.17;;;;;;;11.52;100.00;101224.88;2070641;28;20178;-67
2022/11/16 00:43:15;;;;;;;11.50;9.53;;;;;;;11.57;100.00;101219.59;2070503;28;20183;-67
2022/11/16 00:44:16;;;;;;;12.23;9.53;;;;;;;11.53;100.00;101216.09;2070671;28;20260;-67
2022/11/16 00:45:17;;;;;;;11.90;9.37;;;;;;;11.59;100.00;101216.44;2070216;28;20195;-67
2022/11/16 00:46:17;;;;;;;12.57;10.30;;;;;;;11.56;100.00;101220.03;2070956;28;20992;-67
2022/11/16 00:47:18;;;;;;;10.97;9.73;;;;;;;11.53;100.00;101218.88;2071322;28;20193;-67
2022/11/16 00:48:19;;;;;;;13.17;9.93;;;;;;;11.24;100.00;101164.31;2070619;28;20251;-67
2022/11/16 00:49:19;;;;;;;12.20;10.13;;;;;;;11.51;100.00;101201.88;2070717;28;20191;-67
2022/11/16 00:50:19;;;;;;;12.87;9.50;;;;;;;11.51;100.00;101203.84;2070971;28;20900;-67
2022/11/16 00:51:20;;;;;;;12.53;10.17;;;;;;;11.58;100.00;101212.84;2070942;28;20226;-67
2022/11/16 00:52:20;;;;;;;11.23;9.73;;;;;;;11.59;100.00;101214.44;2071366;28;20174;-67
2022/11/16 00:53:21;;;;;;;14.30;10.47;;;;;;;11.42;100.00;101189.78;2070614;28;20198;-67
2022/11/16 00:54:22;;;;;;;12.27;9.77;;;;;;;11.61;100.00;101208.47;2070959;28;20185;-67
2022/11/16 00:55:22;;;;;;;11.70;9.53;;;;;;;11.54;100.00;101194.69;2070165;28;20195;-67
2022/11/16 00:56:23;;;;;;;12.73;9.87;;;;;;;11.59;100.00;101208.13;2071022;28;20186;-67
2022/11/16 00:57:23;;;;;;;14.23;10.20;;;;;;;11.58;100.00;101212.06;2070678;28;20291;-67
2022/11/16 00:58:24;;;;;;;12.77;9.67;;;;;;;11.61;100.00;101205.69;2070029;28;20220;-67
2022/11/16 00:59:24;;;;;;;16.23;10.43;;;;;;;11.58;100.00;101206.53;2070835;28;20265;-67
2022/11/16 01:00:25;;;;;;;12.37;10.30;;;;;;;11.58;100.00;101203.75;2071494;28;20179;-67
2022/11/16 01:01:25;;;;;;;13.47;10.03;;;;;;;11.60;100.00;101204.91;2070696;28;20219;-67
2022/11/16 01:02:26;;;;;;;12.07;9.80;;;;;;;11.59;100.00;101199.78;2070568;28;20197;-67
2022/11/16 01:03:27;;;;;;;13.47;10.20;;;;;;;11.54;100.00;101192.69;2070959;28;20189;-67
2022/11/16 01:04:27;;;;;;;11.20;9.60;;;;;;;11.62;100.00;101204.47;2071385;28;20440;-67
2022/11/16 01:05:28;;;;;;;12.23;10.30;;;;;;;11.59;100.00;101197.00;2071517;28;20760;-67
2022/11/16 01:06:28;;;;;;;11.20;9.67;;;;;;;11.62;100.00;101202.50;2072730;28;20188;-67
2022/11/16 01:07:29;;;;;;;11.10;9.33;;;;;;;11.59;100.00;101197.00;2072271;28;20195;-67
2022/11/16 01:08:30;;;;;;;11.80;9.57;;;;;;;11.60;100.00;101190.25;2072745;28;20185;-67
2022/11/16 01:09:30;;;;;;;12.90;10.47;;;;;;;11.59;100.00;101177.56;2072642;28;20247;-67
2022/11/16 01:10:31;;;;;;;12.83;10.10;;;;;;;10.73;100.00;101051.94;2072625;28;20549;-67
2022/11/16 01:12:51;;;;;;;14.07;10.53;;;;;;;11.50;100.00;101182.88;2071833;28;20236;-67
2022/11/16 01:13:53;;;;;;;13.30;10.50;;;;;;;10.75;100.00;101065.34;2071835;28;21374;-67
2022/11/16 01:14:53;;;;;;;13.80;10.67;;;;;;;11.47;100.00;101181.72;2071433;28;20526;-67
2022/11/16 01:15:54;;;;;;;13.33;10.13;;;;;;;11.46;100.00;101176.59;2072125;28;20444;-67
2022/11/16 01:16:54;;;;;;;12.80;10.27;;;;;;;11.50;100.00;101175.34;2072770;28;20703;-67
2022/11/16 01:17:55;;;;;;;11.93;9.80;;;;;;;11.54;100.00;101191.91;2072699;28;20540;-67
2022/11/16 01:18:56;;;;;;;13.03;10.30;;;;;;;11.54;100.00;101181.56;2072225;28;20177;-67
2022/11/16 01:19:56;;;;;;;13.93;9.90;;;;;;;11.44;100.00;101165.13;2072798;28;20490;-67
2022/11/16 01:20:57;;;;;;;13.30;10.70;;;;;;;11.51;100.00;101184.44;2072841;28;20177;-67
2022/11/16 01:21:58;;;;;;;13.50;9.60;;;;;;;11.49;100.00;101176.56;2072149;28;20750;-68
2022/11/16 01:22:58;;;;;;;13.17;10.37;;;;;;;11.50;100.00;101177.31;2072671;28;20189;-67
2022/11/16 01:23:59;;;;;;;13.47;10.33;;;;;;;11.50;100.00;101177.31;2072520;28;20532;-67
2022/11/16 01:24:59;;;;;;;11.83;9.97;;;;;;;10.87;100.00;101070.31;2070856;28;20233;-67
2022/11/16 01:26:00;;;;;;;12.80;10.57;;;;;;;11.47;100.00;101170.63;2072173;28;20665;-67
2022/11/16 01:27:01;;;;;;;13.27;10.70;;;;;;;11.10;100.00;101120.19;2072681;28;20630;-67
2022/11/16 01:28:01;;;;;;;12.60;9.87;;;;;;;11.09;100.00;101108.31;2072353;28;20188;-67
2022/11/16 01:29:02;;;;;;;13.17;10.63;;;;;;;11.52;100.00;101175.69;2072214;28;20199;-67
2022/11/16 01:30:03;;;;;;;12.33;10.13;;;;;;;11.55;100.00;101179.59;2072051;28;20193;-67
2022/11/16 01:31:04;;;;;;;11.97;10.10;;;;;;;11.47;100.00;101176.16;2072708;28;20191;-67
2022/11/16 01:32:04;;;;;;;13.60;10.67;;;;;;;11.48;100.00;101172.19;2071890;28;20941;-67
2022/11/16 01:33:05;;;;;;;13.07;10.73;;;;;;;11.46;100.00;101165.50;2072308;28;20708;-67
2022/11/16 01:34:05;;;;;;;12.20;10.27;;;;;;;11.23;100.00;101143.34;2071979;28;20622;-68
2022/11/16 01:35:06;;;;;;;13.87;10.80;;;;;;;11.43;100.00;101181.00;2071695;28;20268;-67
2022/11/16 01:36:13;;;;;;;11.53;10.10;;;;;;;11.43;100.00;101172.66;2073039;28;20539;-67
2022/11/16 01:37:13;;;;;;;14.30;10.00;;;;;;;11.41;100.00;101174.31;2072556;28;20416;-67
2022/11/16 01:38:14;;;;;;;13.23;10.83;;;;;;;11.41;100.00;101168.75;2071499;28;20928;-67
2022/11/16 01:39:15;;;;;;;12.57;10.23;;;;;;;11.43;100.00;101172.66;2072012;28;20189;-67
2022/11/16 01:40:15;;;;;;;14.47;10.30;;;;;;;10.70;100.00;101047.22;2072437;28;20200;-67
2022/11/16 01:41:21;;;;;;;13.17;10.97;;;;;;;11.45;100.00;101167.50;2072365;28;20506;-67
2022/11/16 01:42:25;;;;;;;13.67;10.80;;;;;;;11.50;100.00;101169.00;2072259;28;20643;-67
2022/11/16 01:43:26;;;;;;;14.07;11.03;;;;;;;11.49;100.00;101168.22;2071872;28;20446;-67
2022/11/16 01:44:30;;;;;;;12.43;10.27;;;;;;;11.49;100.00;101164.66;2072257;28;20452;-67
2022/11/16 01:45:38;;;;;;;12.70;11.13;;;;;;;11.01;100.00;101079.13;2071565;28;20425;-67
2022/11/16 01:46:38;;;;;;;13.57;10.63;;;;;;;11.48;100.00;101154.75;2072629;28;20432;-67
2022/11/16 01:47:39;;;;;;;12.17;10.83;;;;;;;11.43;100.00;101155.25;2072423;28;20421;-67
2022/11/16 01:48:40;;;;;;;14.40;10.13;;;;;;;11.41;100.00;101157.66;2072044;28;20188;-67
2022/11/16 01:49:45;;;;;;;13.80;10.40;;;;;;;11.41;100.00;101155.69;2071858;28;20224;-67
2022/11/16 01:50:47;;;;;;;13.23;10.03;;;;;;;11.46;100.00;101160.72;2071732;28;20443;-67
2022/11/16 01:51:52;;;;;;;13.53;10.23;;;;;;;11.43;100.00;101152.47;2071792;28;20480;-67
2022/11/16 01:53:04;;;;;;;12.53;10.90;;;;;;;11.42;100.00;101162.78;2072219;28;20432;-67
2022/11/16 01:54:08;;;;;;;12.73;11.03;;;;;;;11.46;100.00;101155.19;2072233;28;20443;-67
2022/11/16 01:55:11;;;;;;;13.30;10.60;;;;;;;11.47;100.00;101153.19;2071423;28;20431;-67
2022/11/16 01:56:30;;;;;;;13.77;10.80;;;;;;;11.45;100.00;101148.06;2071743;28;20452;-68
2022/11/16 01:57:34;;;;;;;12.27;10.17;;;;;;;11.49;100.00;101151.56;2072291;28;20784;-67
2022/11/16 01:58:35;;;;;;;14.07;10.13;;;;;;;11.50;100.00;101144.81;2071811;28;21109;-67
2022/11/16 01:59:37;;;;;;;13.63;10.90;;;;;;;11.50;100.00;101139.25;2072107;28;20511;-67
2022/11/16 02:00:37;;;;;;;12.10;10.57;;;;;;;11.44;100.00;101131.84;2071766;28;20239;-67
2022/11/16 02:01:38;;;;;;;13.60;10.30;;;;;;;11.51;100.00;101142.78;2072300;28;21668;-67
2022/11/16 02:02:39;;;;;;;13.83;11.00;;;;;;;11.50;100.00;101138.47;2071734;28;20551;-67
2022/11/16 02:03:39;;;;;;;13.43;10.93;;;;;;;11.50;100.00;101136.47;2072185;28;20255;-67
2022/11/16 02:04:40;;;;;;;11.37;9.70;;;;;;;11.51;100.00;101138.03;2072368;28;20896;-67
2022/11/16 02:06:07;;;;;;;13.50;10.77;;;;;;;11.51;100.00;101128.91;2070727;28;20205;-67
2022/11/16 02:09:52;;;;;;;13.77;10.80;;;;;;;11.52;100.00;101127.72;2079240;28;20411;-67
2022/11/16 02:11:05;;;;;;;12.77;10.43;;;;;;;11.50;100.00;101128.16;2071752;28;20389;-67
2022/11/16 02:12:43;;;;;;;13.23;10.70;;;;;;;11.49;100.00;101120.25;2071859;28;20533;-67
2022/11/16 02:14:00;;;;;;;12.57;10.00;;;;;;;11.48;100.00;101113.91;2071765;28;20431;-67
2022/11/16 02:15:12;;;;;;;12.23;9.77;;;;;;;11.48;100.00;101113.13;2071681;28;20438;-68
2022/11/16 02:16:15;;;;;;;14.87;10.80;;;;;;;11.46;100.00;101109.97;2071050;28;20467;-68
2022/11/16 02:17:25;;;;;;;12.80;10.17;;;;;;;11.47;100.00;101117.13;2071896;28;20531;-68
2022/11/16 02:18:37;;;;;;;12.37;10.33;;;;;;;11.45;100.00;101111.19;2071764;28;20996;-68
2022/11/16 02:19:43;;;;;;;12.77;10.40;;;;;;;11.44;100.00;101115.19;2071154;28;20452;-68
2022/11/16 02:21:13;;;;;;;13.40;10.30;;;;;;;11.41;100.00;101113.25;2072060;28;20444;-68
2022/11/16 02:22:54;;;;;;;12.00;10.23;;;;;;;11.42;100.00;101114.84;2071225;28;20510;-68
2022/11/16 02:24:16;;;;;;;14.00;10.73;;;;;;;11.41;100.00;101116.03;2071396;28;20442;-68
2022/11/16 02:25:48;;;;;;;13.57;10.90;;;;;;;11.36;100.00;101114.53;2071449;28;20451;-68
2022/11/16 02:26:55;;;;;;;14.00;10.17;;;;;;;11.41;100.00;101111.28;2071036;28;20429;-68
2022/11/16 02:28:14;;;;;;;13.57;10.43;;;;;;;11.37;100.00;101109.78;2072094;28;20428;-68
2022/11/16 02:29:27;;;;;;;12.90;10.50;;;;;;;11.34;100.00;101094.78;2071837;28;20412;-67
2022/11/16 02:30:28;;;;;;;13.63;10.80;;;;;;;11.02;100.00;101052.19;2071868;28;20428;-67
2022/11/16 02:31:35;;;;;;;13.20;10.30;;;;;;;11.20;100.00;101078.38;2071765;28;20438;-67
2022/11/16 02:32:42;;;;;;;13.67;10.70;;;;;;;11.38;100.00;101103.03;2071681;28;20562;-67
2022/11/16 02:33:44;;;;;;;14.30;10.83;;;;;;;11.39;100.00;101096.25;2072359;28;20425;-67
2022/11/16 02:34:53;;;;;;;13.77;10.13;;;;;;;11.06;100.00;101050.16;2072597;28;20428;-67
2022/11/16 02:35:58;;;;;;;15.90;10.93;;;;;;;11.37;100.00;101091.13;2071661;28;20848;-67
2022/11/16 02:37:01;;;;;;;14.07;11.20;;;;;;;11.37;100.00;101093.91;2071902;28;20937;-67
2022/11/16 02:38:09;;;;;;;15.50;12.03;;;;;;;11.34;100.00;101089.22;2071422;28;20480;-67
2022/11/16 02:39:15;;;;;;;14.67;11.40;;;;;;;11.31;100.00;101084.50;2071690;28;20441;-67
2022/11/16 02:40:20;;;;;;;13.20;10.77;;;;;;;11.36;100.00;101094.31;2072318;28;20426;-67
2022/11/16 02:41:23;;;;;;;14.70;11.40;;;;;;;11.36;100.00;101086.78;2071130;28;20564;-67
2022/11/16 02:42:38;;;;;;;14.57;10.97;;;;;;;11.36;100.00;101088.78;2071351;28;20835;-67
2022/11/16 02:43:45;;;;;;;15.60;11.30;;;;;;;11.39;100.00;101094.28;2071628;28;20494;-67
2022/11/16 02:44:49;;;;;;;18.73;11.43;;;;;;;11.41;100.00;101089.06;2071193;28;20442;-67
2022/11/16 02:45:53;;;;;;;15.67;11.70;;;;;;;11.42;100.00;101096.19;2069921;28;20470;-67
2022/11/16 02:46:58;;;;;;;15.27;11.17;;;;;;;11.43;100.00;101092.19;2071935;28;20428;-67
2022/11/16 02:48:05;;;;;;;14.87;11.30;;;;;;;11.44;100.00;101084.66;2071347;28;20857;-67
2022/11/16 02:49:10;;;;;;;14.73;10.97;;;;;;;11.45;100.00;101086.22;2071893;28;20432;-67
2022/11/16 02:50:16;;;;;;;13.97;11.17;;;;;;;11.46;100.00;101082.22;2071497;28;20535;-67
2022/11/16 02:51:19;;;;;;;15.07;11.17;;;;;;;11.46;100.00;101076.69;2071482;28;20534;-67
2022/11/16 02:52:21;;;;;;;14.97;11.73;;;;;;;11.45;100.00;101075.13;2071487;28;20442;-67
2022/11/16 02:53:24;;;;;;;14.27;11.37;;;;;;;11.43;100.00;101081.09;2071496;28;20433;-67
2022/11/16 02:54:24;;;;;;;15.50;11.80;;;;;;;11.39;100.00;101065.72;2072240;28;20463;-67
2022/11/16 02:55:27;;;;;;;13.87;10.87;;;;;;;11.44;100.00;101077.13;2070412;28;20440;-67
2022/11/16 02:56:29;;;;;;;14.13;11.27;;;;;;;10.53;100.00;100937.47;2071428;28;20199;-67
2022/11/16 02:57:38;;;;;;;14.97;11.20;;;;;;;11.42;100.00;101071.22;2071356;28;25102;-67
2022/11/16 02:58:39;;;;;;;14.13;10.67;;;;;;;11.42;100.00;101073.22;2071465;28;20848;-67
2022/11/16 02:59:49;;;;;;;14.37;11.20;;;;;;;11.43;100.00;101074.78;2071177;28;20428;-67
2022/11/16 03:00:59;;;;;;;13.83;10.93;;;;;;;11.42;100.00;101073.22;2072016;28;20277;-67
2022/11/16 03:02:24;;;;;;;15.60;11.83;;;;;;;11.39;100.00;101074.84;2070790;28;20444;-67
2022/11/16 03:03:33;;;;;;;14.37;11.27;;;;;;;11.36;100.00;101072.91;2071613;28;20523;-67
2022/11/16 03:04:42;;;;;;;15.00;11.60;;;;;;;11.32;100.00;101071.44;2071824;28;20806;-68
2022/11/16 03:05:48;;;;;;;14.13;11.63;;;;;;;10.49;100.00;100947.03;2070985;28;20972;-68
2022/11/16 03:06:50;;;;;;;13.73;11.30;;;;;;;10.87;100.00;100990.66;2071757;28;20470;-67
2022/11/16 03:08:01;;;;;;;16.97;11.40;;;;;;;11.37;100.00;101060.59;2071468;28;20421;-67
2022/11/16 03:09:10;;;;;;;14.73;11.50;;;;;;;11.38;100.00;101059.38;2070795;28;20455;-68
2022/11/16 03:11:58;;;;;;;16.33;11.20;;;;;;;11.38;100.00;101061.41;2070763;28;20774;-68
2022/11/16 03:12:54;;;;;;;14.97;11.30;;;;;;;11.38;100.00;101061.41;2071400;28;20436;-67
2022/11/16 03:13:59;;;;;;;14.23;10.97;;;;;;;11.36;100.00;101049.94;2071510;28;20942;-67
2022/11/16 03:15:06;;;;;;;15.53;11.03;;;;;;;11.37;100.00;101051.50;2070874;28;20249;-67
2022/11/16 03:16:13;;;;;;;15.87;11.40;;;;;;;11.35;100.00;101046.38;2071389;28;20444;-67
2022/11/16 03:17:23;;;;;;;15.10;12.27;;;;;;;11.30;100.00;101044.09;2070935;28;20454;-67
2022/11/16 03:18:27;;;;;;;14.97;11.43;;;;;;;10.79;100.00;100972.63;2071103;28;20480;-67
2022/11/16 03:19:50;;;;;;;14.70;12.47;;;;;;;11.32;100.00;101054.78;2071669;28;20476;-67
2022/11/16 03:21:02;;;;;;;16.30;11.97;;;;;;;11.28;100.00;101034.66;2071811;28;20448;-67
2022/11/16 03:22:11;;;;;;;16.53;11.87;;;;;;;11.32;100.00;101036.13;2070877;28;20479;-67
2022/11/16 03:23:12;;;;;;;17.33;12.13;;;;;;;11.32;100.00;101033.34;2071312;28;20480;-67
2022/11/16 03:24:14;;;;;;;16.23;11.67;;;;;;;11.31;100.00;101034.56;2071563;28;20443;-67
2022/11/16 03:25:19;;;;;;;14.67;11.73;;;;;;;11.17;100.00;101007.09;2070920;28;20502;-67
2022/11/16 03:26:25;;;;;;;19.93;13.30;;;;;;;10.81;100.00;100947.25;2071241;28;20509;-67
2022/11/16 03:27:34;;;;;;;15.77;12.07;;;;;;;11.29;100.00;101036.19;2071546;28;20475;-69
2022/11/16 03:29:19;;;;;;;16.33;11.97;;;;;;;11.28;100.00;101029.88;2070678;28;20427;-68
2022/11/16 03:30:22;;;;;;;14.80;11.73;;;;;;;11.08;100.00;101017.22;2071909;28;20805;-67
2022/11/16 03:31:46;;;;;;;15.30;12.10;;;;;;;11.22;100.00;101016.94;2071043;28;20513;-67
2022/11/16 03:32:58;;;;;;;16.13;12.33;;;;;;;11.24;100.00;101026.41;2071593;28;20405;-68
2022/11/16 03:34:11;;;;;;;16.37;12.07;;;;;;;10.67;100.00;100942.72;2070933;28;20932;-68
2022/11/16 03:35:31;;;;;;;15.33;12.23;;;;;;;11.27;100.00;101022.75;2070227;28;20436;-68
2022/11/16 03:36:35;;;;;;;16.10;12.77;;;;;;;11.18;100.00;101011.44;2071551;28;20412;-67
2022/11/16 03:37:36;;;;;;;16.57;12.23;;;;;;;11.27;100.00;101027.53;2071290;28;20436;-67
2022/11/16 03:38:39;;;;;;;15.33;12.13;;;;;;;10.34;100.00;100887.56;2070924;28;20425;-67
2022/11/16 03:39:41;;;;;;;15.23;12.30;;;;;;;11.05;100.00;101018.06;2071224;28;20424;-67
2022/11/16 03:40:44;;;;;;;15.53;12.63;;;;;;;10.90;100.00;101005.66;2071722;28;20980;-67
2022/11/16 03:41:47;;;;;;;17.07;13.30;;;;;;;11.09;100.00;101014.03;2071395;28;20444;-67
2022/11/16 03:42:48;;;;;;;15.60;12.53;;;;;;;11.11;100.00;101024.66;2071169;28;20441;-67
2022/11/16 03:43:50;;;;;;;16.03;13.10;;;;;;;11.04;100.00;101011.75;2071352;28;20519;-67
2022/11/16 03:44:52;;;;;;;15.23;12.40;;;;;;;11.14;100.00;101021.84;2070888;28;20972;-67
2022/11/16 03:45:53;;;;;;;15.37;12.77;;;;;;;11.16;100.00;101024.97;2071200;28;20445;-67
2022/11/16 03:46:53;;;;;;;15.03;12.37;;;;;;;11.19;100.00;101018.56;2071204;28;21022;-67
2022/11/16 03:47:54;;;;;;;15.60;13.43;;;;;;;11.14;100.00;101016.28;2071212;28;20664;-67
2022/11/16 03:48:57;;;;;;;17.00;13.23;;;;;;;11.13;100.00;101013.94;2071125;28;20175;-67
2022/11/16 03:49:57;;;;;;;15.97;11.93;;;;;;;11.13;100.00;101011.94;2071464;28;20197;-67
2022/11/16 03:50:58;;;;;;;17.40;13.10;;;;;;;11.15;100.00;101012.31;2071406;28;20447;-67
2022/11/16 03:51:58;;;;;;;16.90;13.20;;;;;;;11.17;100.00;101018.19;2070878;28;20705;-67
2022/11/16 03:52:58;;;;;;;17.67;13.23;;;;;;;11.16;100.00;101015.84;2070969;28;20188;-67
2022/11/16 03:53:59;;;;;;;18.70;13.70;;;;;;;11.17;100.00;101015.44;2070915;28;20193;-67
2022/11/16 03:54:59;;;;;;;16.70;12.73;;;;;;;11.17;100.00;101009.13;2070757;28;20217;-67
2022/11/16 03:56:00;;;;;;;16.73;13.13;;;;;;;11.17;100.00;101012.66;2071196;28;20221;-67
2022/11/16 03:57:01;;;;;;;17.33;13.70;;;;;;;11.13;100.00;101011.94;2071929;28;20192;-67
2022/11/16 03:58:01;;;;;;;16.10;13.23;;;;;;;11.10;100.00;101015.59;2070816;28;20201;-68
2022/11/16 03:59:02;;;;;;;16.33;12.97;;;;;;;11.11;100.00;101016.34;2071163;28;20287;-67
2022/11/16 04:00:04;;;;;;;15.03;12.63;;;;;;;11.08;100.00;101006.91;2071479;28;20232;-67
2022/11/16 04:01:05;;;;;;;16.13;13.00;;;;;;;10.33;100.00;100883.22;2070869;28;20204;-67
2022/11/16 04:02:05;;;;;;;14.93;12.63;;;;;;;11.13;100.00;101008.41;2069898;28;20436;-67
2022/11/16 04:03:06;;;;;;;15.40;12.90;;;;;;;11.13;100.00;101006.38;2071537;28;20273;-67
2022/11/16 04:04:06;;;;;;;15.80;12.13;;;;;;;11.15;100.00;100997.66;2071201;28;20723;-67
2022/11/16 04:24:11;;;;;;;15.63;12.50;;;;;;;10.91;100.00;100990.63;2071190;28;20420;-67
2022/11/16 04:24:24;;;;;;;15.93;12.87;;;;;;;10.91;100.00;100980.28;2071106;28;20443;-67
2022/11/16 04:25:30;;;;;;;16.60;13.40;;;;;;;10.90;100.00;100980.72;2069680;28;20822;-67
2022/11/16 04:28:15;;;;;;;17.57;13.80;;;;;;;10.90;100.00;100983.47;2085895;28;20426;-67
2022/11/16 04:29:15;;;;;;;19.03;13.27;;;;;;;10.96;100.00;100990.88;2070925;28;20708;-67
2022/11/16 04:30:16;;;;;;;17.97;13.77;;;;;;;10.99;100.00;100984.50;2071843;28;20552;-67
2022/11/16 04:37:53;;;;;;;18.87;13.53;;;;;;;10.96;100.00;100973.50;2069635;28;21017;-67
2022/11/16 04:38:54;;;;;;;17.73;13.33;;;;;;;11.04;100.00;100983.22;2070566;28;20440;-67
2022/11/16 04:39:54;;;;;;;17.57;13.70;;;;;;;11.04;100.00;100988.75;2070866;28;20539;-67
2022/11/16 04:40:54;;;;;;;19.30;13.90;;;;;;;11.06;100.00;100984.34;2071377;28;20663;-67
2022/11/16 04:43:13;;;;;;;16.60;13.50;;;;;;;11.15;100.00;100989.31;2070562;28;20185;-67
2022/11/16 04:44:14;;;;;;;17.93;13.67;;;;;;;11.09;100.00;100977.97;2070713;28;20463;-67
2022/11/16 04:47:52;;;;;;;20.63;13.87;;;;;;;11.14;100.00;100979.44;2069991;28;20816;-67
2022/11/16 04:48:53;;;;;;;17.27;13.23;;;;;;;11.03;100.00;100965.03;2070537;28;20424;-67
2022/11/16 04:49:53;;;;;;;17.70;13.23;;;;;;;11.13;100.00;100977.88;2071398;28;20337;-67
2022/11/16 04:50:54;;;;;;;16.57;13.10;;;;;;;11.15;100.00;100975.47;2071142;28;20232;-67
2022/11/16 04:51:54;;;;;;;17.80;14.00;;;;;;;11.14;100.00;100983.00;2070321;28;20229;-67
2022/11/16 04:52:55;;;;;;;17.33;14.07;;;;;;;11.15;100.00;100981.78;2071043;28;20194;-67
2022/11/16 04:53:55;;;;;;;17.53;14.23;;;;;;;11.17;100.00;100976.59;2070635;28;20272;-67
2022/11/16 04:54:56;;;;;;;17.60;14.23;;;;;;;11.16;100.00;100980.59;2070759;28;20235;-67
2022/11/16 04:55:57;;;;;;;16.13;13.43;;;;;;;11.15;100.00;100973.47;2070069;28;20185;-67
2022/11/16 04:56:57;;;;;;;16.83;14.40;;;;;;;10.62;100.00;100914.75;2070860;28;20463;-67
2022/11/16 04:57:58;;;;;;;17.33;13.97;;;;;;;11.05;100.00;100963.38;2070564;28;20198;-67
2022/11/16 04:58:59;;;;;;;16.60;13.00;;;;;;;11.12;100.00;100974.31;2070912;28;20580;-67
2022/11/16 04:59:59;;;;;;;18.30;13.30;;;;;;;11.14;100.00;100973.91;2070989;28;20465;-67
2022/11/16 05:01:00;;;;;;;17.43;13.60;;;;;;;11.16;100.00;100977.00;2070556;28;20197;-67
2022/11/16 05:02:09;;;;;;;18.10;13.80;;;;;;;11.14;100.00;100973.91;2067964;28;20186;-67
2022/11/16 05:03:09;;;;;;;17.77;13.70;;;;;;;11.16;100.00;100972.25;2069811;28;20190;-67
2022/11/16 05:04:10;;;;;;;16.77;13.53;;;;;;;10.88;100.00;100934.03;2069131;28;20448;-67
2022/11/16 05:05:11;;;;;;;17.07;12.67;;;;;;;11.15;100.00;100970.69;2067541;28;20186;-68
2022/11/16 05:06:11;;;;;;;16.83;13.17;;;;;;;11.12;100.00;100965.22;2067944;28;20631;-69
2022/11/16 05:07:13;;;;;;;16.00;12.67;;;;;;;11.13;100.00;100969.56;2068416;28;20252;-69
2022/11/16 05:08:13;;;;;;;16.00;12.97;;;;;;;11.17;100.00;100968.28;2069314;28;20193;-70
2022/11/16 05:09:14;;;;;;;16.57;13.10;;;;;;;11.23;100.00;100963.00;2069999;28;20535;-70
2022/11/16 05:10:15;;;;;;;15.90;13.27;;;;;;;11.26;100.00;100973.25;2068960;28;20193;-68
2022/11/16 05:11:15;;;;;;;17.60;13.67;;;;;;;11.25;100.00;100958.59;2069778;28;21603;-68
2022/11/16 05:12:22;;;;;;;17.40;13.40;;;;;;;11.17;100.00;100946.06;2069196;28;20627;-67
2022/11/16 05:13:22;;;;;;;18.37;14.20;;;;;;;11.19;100.00;100942.88;2069594;28;20210;-69
2022/11/16 05:14:23;;;;;;;15.73;13.07;;;;;;;10.91;100.00;100893.56;2069194;28;20428;-69
2022/11/16 05:15:23;;;;;;;15.60;13.07;;;;;;;11.24;100.00;100954.28;2068761;28;20209;-67
2022/11/16 05:16:23;;;;;;;18.97;14.60;;;;;;;11.21;100.00;100954.31;2070263;28;20228;-68
2022/11/16 05:17:26;;;;;;;17.47;13.50;;;;;;;10.28;100.00;100817.25;2069460;28;20197;-70
2022/11/16 05:18:26;;;;;;;17.03;13.67;;;;;;;11.19;100.00;100957.53;2068517;28;20253;-66
2022/11/16 05:21:01;;;;;;;17.93;13.60;;;;;;;11.23;100.00;100940.81;2070246;28;20568;-69
2022/11/16 05:22:01;;;;;;;17.47;13.53;;;;;;;11.21;100.00;100949.56;2069095;28;21409;-67
2022/11/16 05:23:02;;;;;;;18.60;14.03;;;;;;;10.83;100.00;100884.63;2067583;28;21352;-71
2022/11/16 05:25:21;;;;;;;21.30;14.67;;;;;;;11.23;100.00;100952.69;2068998;28;20196;-68